sensor_id;sensor_type;location;lat;lon;timestamp;temperature;humidity
7028;DHT22;3555;53.248;10.336;2023-02-15T00:01:53;4.70;99.90
7028;DHT22;3555;53.248;10.336;2023-02-15T00:04:21;4.70;99.90
7028;DHT22;3555;53.248;10.336;2023-02-15T00:06:50;4.90;99.90
7028;DHT22;3555;53.248;10.336;2023-02-15T00:09:17;5.00;99.90
7028;DHT22;3555;53.248;10.336;2023-02-15T00:11:44;4.80;99.90
7028;DHT22;3555;53.248;10.336;2023-02-15T00:14:17;4.90;99.90
7028;DHT22;3555;53.248;10.336;2023-02-15T00:16:45;4.90;99.90
7028;DHT22;3555;53.248;10.336;2023-02-15T00:19:14;4.90;99.90
7028;DHT22;3555;53.248;10.336;2023-02-15T00:21:42;4.90;99.90
7028;DHT22;3555;53.248;10.336;2023-02-15T00:24:12;5.00;99.90
7028;DHT22;3555;53.248;10.336;2023-02-15T00:26:40;4.90;99.90
7028;DHT22;3555;53.248;10.336;2023-02-15T00:29:08;5.00;99.90
7028;DHT22;3555;53.248;10.336;2023-02-15T00:31:36;5.10;99.90
7028;DHT22;3555;53.248;10.336;2023-02-15T00:34:03;4.90;99.90
7028;DHT22;3555;53.248;10.336;2023-02-15T00:36:31;4.80;99.90
7028;DHT22;3555;53.248;10.336;2023-02-15T00:38:57;4.80;99.90
7028;DHT22;3555;53.248;10.336;2023-02-15T00:41:26;4.70;99.90
7028;DHT22;3555;53.248;10.336;2023-02-15T00:43:53;4.60;99.90
7028;DHT22;3555;53.248;10.336;2023-02-15T00:46:19;4.50;99.90
7028;DHT22;3555;53.248;10.336;2023-02-15T00:48:46;4.50;99.90
7028;DHT22;3555;53.248;10.336;2023-02-15T00:51:13;4.50;99.90
7028;DHT22;3555;53.248;10.336;2023-02-15T00:53:40;4.20;99.90
7028;DHT22;3555;53.248;10.336;2023-02-15T00:56:07;4.20;99.90
7028;DHT22;3555;53.248;10.336;2023-02-15T00:58:35;4.40;99.90
7028;DHT22;3555;53.248;10.336;2023-02-15T01:01:04;4.40;99.90
7028;DHT22;3555;53.248;10.336;2023-02-15T01:03:32;4.20;99.90
7028;DHT22;3555;53.248;10.336;2023-02-15T01:05:59;4.20;99.90
7028;DHT22;3555;53.248;10.336;2023-02-15T01:08:26;4.00;99.90
7028;DHT22;3555;53.248;10.336;2023-02-15T01:10:53;4.00;99.90
7028;DHT22;3555;53.248;10.336;2023-02-15T01:13:20;4.00;99.90
7028;DHT22;3555;53.248;10.336;2023-02-15T01:15:53;4.10;99.90
7028;DHT22;3555;53.248;10.336;2023-02-15T01:18:21;4.30;99.90
7028;DHT22;3555;53.248;10.336;2023-02-15T01:20:48;4.50;99.90
7028;DHT22;3555;53.248;10.336;2023-02-15T01:23:15;4.60;99.90
7028;DHT22;3555;53.248;10.336;2023-02-15T01:25:42;4.60;99.90
7028;DHT22;3555;53.248;10.336;2023-02-15T01:28:09;4.50;99.90
7028;DHT22;3555;53.248;10.336;2023-02-15T01:30:36;4.50;99.90
7028;DHT22;3555;53.248;10.336;2023-02-15T01:33:04;4.60;99.90
7028;DHT22;3555;53.248;10.336;2023-02-15T01:35:31;4.60;99.90
7028;DHT22;3555;53.248;10.336;2023-02-15T01:37:58;4.80;99.90
7028;DHT22;3555;53.248;10.336;2023-02-15T01:40:25;4.90;99.90
7028;DHT22;3555;53.248;10.336;2023-02-15T01:42:53;5.00;99.90
7028;DHT22;3555;53.248;10.336;2023-02-15T01:45:23;4.90;99.90
7028;DHT22;3555;53.248;10.336;2023-02-15T01:47:54;4.90;99.90
7028;DHT22;3555;53.248;10.336;2023-02-15T01:50:28;4.70;99.90
7028;DHT22;3555;53.248;10.336;2023-02-15T01:53:00;4.80;99.90
7028;DHT22;3555;53.248;10.336;2023-02-15T01:55:32;4.60;99.90
7028;DHT22;3555;53.248;10.336;2023-02-15T01:58:00;4.40;99.90
7028;DHT22;3555;53.248;10.336;2023-02-15T02:00:27;4.30;99.90
7028;DHT22;3555;53.248;10.336;2023-02-15T02:02:55;4.30;99.90
7028;DHT22;3555;53.248;10.336;2023-02-15T02:05:25;4.30;99.90
7028;DHT22;3555;53.248;10.336;2023-02-15T02:07:54;4.20;99.90
7028;DHT22;3555;53.248;10.336;2023-02-15T02:10:25;4.30;99.90
7028;DHT22;3555;53.248;10.336;2023-02-15T02:12:56;4.30;99.90
7028;DHT22;3555;53.248;10.336;2023-02-15T02:15:40;4.30;99.90
7028;DHT22;3555;53.248;10.336;2023-02-15T02:18:21;4.10;99.90
7028;DHT22;3555;53.248;10.336;2023-02-15T02:21:30;4.20;99.90
7028;DHT22;3555;53.248;10.336;2023-02-15T02:24:23;4.20;99.90
7028;DHT22;3555;53.248;10.336;2023-02-15T02:27:19;4.30;99.90
7028;DHT22;3555;53.248;10.336;2023-02-15T02:30:10;4.20;99.90
7028;DHT22;3555;53.248;10.336;2023-02-15T02:35:55;4.10;99.90
7028;DHT22;3555;53.248;10.336;2023-02-15T02:38:28;4.10;99.90
7028;DHT22;3555;53.248;10.336;2023-02-15T02:41:02;4.00;99.90
7028;DHT22;3555;53.248;10.336;2023-02-15T02:43:35;4.00;99.90
7028;DHT22;3555;53.248;10.336;2023-02-15T02:46:10;3.90;99.90
7028;DHT22;3555;53.248;10.336;2023-02-15T02:48:40;3.80;99.90
7028;DHT22;3555;53.248;10.336;2023-02-15T02:51:08;3.60;99.90
7028;DHT22;3555;53.248;10.336;2023-02-15T02:53:35;3.40;99.90
7028;DHT22;3555;53.248;10.336;2023-02-15T02:56:06;3.20;99.90
7028;DHT22;3555;53.248;10.336;2023-02-15T02:58:39;3.20;99.90
7028;DHT22;3555;53.248;10.336;2023-02-15T03:01:11;3.10;99.90
7028;DHT22;3555;53.248;10.336;2023-02-15T03:03:42;3.10;99.90
7028;DHT22;3555;53.248;10.336;2023-02-15T03:06:13;3.10;99.90
7028;DHT22;3555;53.248;10.336;2023-02-15T03:08:46;3.00;99.90
7028;DHT22;3555;53.248;10.336;2023-02-15T03:11:14;3.10;99.90
7028;DHT22;3555;53.248;10.336;2023-02-15T03:13:41;3.00;99.90
7028;DHT22;3555;53.248;10.336;2023-02-15T03:16:10;3.00;99.90
7028;DHT22;3555;53.248;10.336;2023-02-15T03:18:55;3.00;99.90
7028;DHT22;3555;53.248;10.336;2023-02-15T03:21:31;2.90;99.90
7028;DHT22;3555;53.248;10.336;2023-02-15T03:24:02;3.00;99.90
7028;DHT22;3555;53.248;10.336;2023-02-15T03:26:32;3.10;99.90
7028;DHT22;3555;53.248;10.336;2023-02-15T03:29:02;3.00;99.90
7028;DHT22;3555;53.248;10.336;2023-02-15T03:31:33;3.20;99.90
7028;DHT22;3555;53.248;10.336;2023-02-15T03:34:05;3.30;99.90
7028;DHT22;3555;53.248;10.336;2023-02-15T03:36:39;3.30;99.90
7028;DHT22;3555;53.248;10.336;2023-02-15T03:39:13;3.30;99.90
7028;DHT22;3555;53.248;10.336;2023-02-15T03:41:50;3.10;99.90
7028;DHT22;3555;53.248;10.336;2023-02-15T03:44:25;3.20;99.90
7028;DHT22;3555;53.248;10.336;2023-02-15T03:46:58;3.10;99.90
7028;DHT22;3555;53.248;10.336;2023-02-15T03:49:30;3.20;99.90
7028;DHT22;3555;53.248;10.336;2023-02-15T03:52:02;3.30;99.90
7028;DHT22;3555;53.248;10.336;2023-02-15T03:54:32;3.40;99.90
7028;DHT22;3555;53.248;10.336;2023-02-15T03:57:14;3.40;99.90
7028;DHT22;3555;53.248;10.336;2023-02-15T03:59:59;3.10;99.90
7028;DHT22;3555;53.248;10.336;2023-02-15T04:02:58;3.10;99.90
7028;DHT22;3555;53.248;10.336;2023-02-15T04:05:28;3.20;99.90
7028;DHT22;3555;53.248;10.336;2023-02-15T04:07:56;3.10;99.90
7028;DHT22;3555;53.248;10.336;2023-02-15T04:10:23;2.90;99.90
7028;DHT22;3555;53.248;10.336;2023-02-15T04:13:07;2.90;99.90
7028;DHT22;3555;53.248;10.336;2023-02-15T04:15:34;2.50;99.90
7028;DHT22;3555;53.248;10.336;2023-02-15T04:18:18;2.50;99.90
7028;DHT22;3555;53.248;10.336;2023-02-15T04:20:45;2.50;99.90
7028;DHT22;3555;53.248;10.336;2023-02-15T04:23:31;2.50;99.90
7028;DHT22;3555;53.248;10.336;2023-02-15T04:26:16;2.40;99.90
7028;DHT22;3555;53.248;10.336;2023-02-15T04:28:43;2.30;99.90
7028;DHT22;3555;53.248;10.336;2023-02-15T04:31:09;2.20;99.90
7028;DHT22;3555;53.248;10.336;2023-02-15T04:33:36;2.20;99.90
7028;DHT22;3555;53.248;10.336;2023-02-15T04:36:04;2.30;99.90
7028;DHT22;3555;53.248;10.336;2023-02-15T04:38:32;2.30;99.90
7028;DHT22;3555;53.248;10.336;2023-02-15T04:40:59;2.10;99.90
7028;DHT22;3555;53.248;10.336;2023-02-15T04:43:26;2.10;99.90
7028;DHT22;3555;53.248;10.336;2023-02-15T04:45:53;2.00;99.90
7028;DHT22;3555;53.248;10.336;2023-02-15T04:48:20;1.90;99.90
7028;DHT22;3555;53.248;10.336;2023-02-15T04:50:46;1.90;99.90
7028;DHT22;3555;53.248;10.336;2023-02-15T04:53:13;2.00;99.90
7028;DHT22;3555;53.248;10.336;2023-02-15T04:55:44;2.20;99.90
7028;DHT22;3555;53.248;10.336;2023-02-15T04:58:11;2.20;99.90
7028;DHT22;3555;53.248;10.336;2023-02-15T05:00:37;2.10;99.90
7028;DHT22;3555;53.248;10.336;2023-02-15T05:03:04;2.20;99.90
7028;DHT22;3555;53.248;10.336;2023-02-15T05:05:31;2.30;99.90
7028;DHT22;3555;53.248;10.336;2023-02-15T05:07:58;2.10;99.90
7028;DHT22;3555;53.248;10.336;2023-02-15T05:10:25;2.00;99.90
7028;DHT22;3555;53.248;10.336;2023-02-15T05:12:53;1.80;99.90
7028;DHT22;3555;53.248;10.336;2023-02-15T05:15:20;1.60;99.90
7028;DHT22;3555;53.248;10.336;2023-02-15T05:17:47;1.50;99.90
7028;DHT22;3555;53.248;10.336;2023-02-15T05:20:13;1.60;99.90
7028;DHT22;3555;53.248;10.336;2023-02-15T05:22:40;1.90;99.90
7028;DHT22;3555;53.248;10.336;2023-02-15T05:25:08;2.10;99.90
7028;DHT22;3555;53.248;10.336;2023-02-15T05:27:54;2.20;99.90
7028;DHT22;3555;53.248;10.336;2023-02-15T05:30:38;2.40;99.90
7028;DHT22;3555;53.248;10.336;2023-02-15T05:33:06;2.20;99.90
7028;DHT22;3555;53.248;10.336;2023-02-15T05:35:33;2.10;99.90
7028;DHT22;3555;53.248;10.336;2023-02-15T05:38:00;1.90;99.90
7028;DHT22;3555;53.248;10.336;2023-02-15T05:40:27;1.90;99.90
7028;DHT22;3555;53.248;10.336;2023-02-15T05:42:56;1.90;99.90
7028;DHT22;3555;53.248;10.336;2023-02-15T05:45:23;2.00;99.90
7028;DHT22;3555;53.248;10.336;2023-02-15T05:47:50;2.00;99.90
7028;DHT22;3555;53.248;10.336;2023-02-15T05:50:17;2.10;99.90
7028;DHT22;3555;53.248;10.336;2023-02-15T05:52:44;2.20;99.90
7028;DHT22;3555;53.248;10.336;2023-02-15T05:55:11;1.90;99.90
7028;DHT22;3555;53.248;10.336;2023-02-15T05:57:38;1.70;99.90
7028;DHT22;3555;53.248;10.336;2023-02-15T06:00:07;1.70;99.90
7028;DHT22;3555;53.248;10.336;2023-02-15T06:02:35;1.90;99.90
7028;DHT22;3555;53.248;10.336;2023-02-15T06:05:02;1.90;99.90
7028;DHT22;3555;53.248;10.336;2023-02-15T06:07:29;1.40;99.90
7028;DHT22;3555;53.248;10.336;2023-02-15T06:09:56;1.20;99.90
7028;DHT22;3555;53.248;10.336;2023-02-15T06:12:23;1.10;99.90
7028;DHT22;3555;53.248;10.336;2023-02-15T06:14:50;1.10;99.90
7028;DHT22;3555;53.248;10.336;2023-02-15T06:17:18;1.00;99.90
7028;DHT22;3555;53.248;10.336;2023-02-15T06:19:47;1.10;99.90
7028;DHT22;3555;53.248;10.336;2023-02-15T06:22:13;0.90;99.90
7028;DHT22;3555;53.248;10.336;2023-02-15T06:24:40;1.00;99.90
7028;DHT22;3555;53.248;10.336;2023-02-15T06:27:08;1.10;99.90
7028;DHT22;3555;53.248;10.336;2023-02-15T06:29:35;1.10;99.90
7028;DHT22;3555;53.248;10.336;2023-02-15T06:32:02;1.00;99.90
7028;DHT22;3555;53.248;10.336;2023-02-15T06:34:31;1.00;99.90
7028;DHT22;3555;53.248;10.336;2023-02-15T06:36:58;0.90;99.90
7028;DHT22;3555;53.248;10.336;2023-02-15T06:39:25;0.80;99.90
7028;DHT22;3555;53.248;10.336;2023-02-15T06:41:51;0.70;99.90
7028;DHT22;3555;53.248;10.336;2023-02-15T06:44:18;0.90;99.90
7028;DHT22;3555;53.248;10.336;2023-02-15T06:46:45;1.00;99.90
7028;DHT22;3555;53.248;10.336;2023-02-15T06:49:12;0.80;99.90
7028;DHT22;3555;53.248;10.336;2023-02-15T06:51:40;0.90;99.90
7028;DHT22;3555;53.248;10.336;2023-02-15T06:54:07;1.00;99.90
7028;DHT22;3555;53.248;10.336;2023-02-15T06:56:34;1.00;99.90
7028;DHT22;3555;53.248;10.336;2023-02-15T06:59:01;1.00;99.90
7028;DHT22;3555;53.248;10.336;2023-02-15T07:01:28;1.00;99.90
7028;DHT22;3555;53.248;10.336;2023-02-15T07:03:55;0.90;99.90
7028;DHT22;3555;53.248;10.336;2023-02-15T07:06:22;0.80;99.90
7028;DHT22;3555;53.248;10.336;2023-02-15T07:08:50;0.80;99.90
7028;DHT22;3555;53.248;10.336;2023-02-15T07:11:17;0.90;99.90
7028;DHT22;3555;53.248;10.336;2023-02-15T07:14:01;0.90;99.90
7028;DHT22;3555;53.248;10.336;2023-02-15T07:16:28;0.80;99.90
7028;DHT22;3555;53.248;10.336;2023-02-15T07:18:55;0.90;99.90
7028;DHT22;3555;53.248;10.336;2023-02-15T07:21:22;0.90;99.90
7028;DHT22;3555;53.248;10.336;2023-02-15T07:23:50;0.90;99.90
7028;DHT22;3555;53.248;10.336;2023-02-15T07:26:17;0.80;99.90
7028;DHT22;3555;53.248;10.336;2023-02-15T07:28:44;1.00;99.90
7028;DHT22;3555;53.248;10.336;2023-02-15T07:31:10;1.10;99.90
7028;DHT22;3555;53.248;10.336;2023-02-15T07:33:37;1.10;99.90
7028;DHT22;3555;53.248;10.336;2023-02-15T07:36:05;1.30;99.90
7028;DHT22;3555;53.248;10.336;2023-02-15T07:38:34;1.40;99.90
7028;DHT22;3555;53.248;10.336;2023-02-15T07:41:04;1.40;99.90
7028;DHT22;3555;53.248;10.336;2023-02-15T07:43:33;1.50;99.90
7028;DHT22;3555;53.248;10.336;2023-02-15T07:46:01;1.60;99.90
7028;DHT22;3555;53.248;10.336;2023-02-15T07:48:28;1.30;99.90
7028;DHT22;3555;53.248;10.336;2023-02-15T07:50:58;1.50;99.90
7028;DHT22;3555;53.248;10.336;2023-02-15T07:53:25;1.50;99.90
7028;DHT22;3555;53.248;10.336;2023-02-15T07:55:52;1.70;99.90
7028;DHT22;3555;53.248;10.336;2023-02-15T07:58:20;1.40;99.90
7028;DHT22;3555;53.248;10.336;2023-02-15T08:01:07;1.50;99.90
7028;DHT22;3555;53.248;10.336;2023-02-15T08:03:33;1.80;99.90
7028;DHT22;3555;53.248;10.336;2023-02-15T08:06:00;1.80;99.90
7028;DHT22;3555;53.248;10.336;2023-02-15T08:08:27;1.90;99.90
7028;DHT22;3555;53.248;10.336;2023-02-15T08:10:59;1.90;99.90
7028;DHT22;3555;53.248;10.336;2023-02-15T08:13:45;1.90;99.90
7028;DHT22;3555;53.248;10.336;2023-02-15T08:16:20;1.70;99.90
7028;DHT22;3555;53.248;10.336;2023-02-15T08:18:46;1.60;99.90
7028;DHT22;3555;53.248;10.336;2023-02-15T08:21:13;1.60;99.90
7028;DHT22;3555;53.248;10.336;2023-02-15T08:23:40;1.60;99.90
7028;DHT22;3555;53.248;10.336;2023-02-15T08:26:07;1.70;99.90
7028;DHT22;3555;53.248;10.336;2023-02-15T08:28:34;1.70;99.90
7028;DHT22;3555;53.248;10.336;2023-02-15T08:31:06;1.80;99.90
7028;DHT22;3555;53.248;10.336;2023-02-15T08:33:33;1.90;99.90
7028;DHT22;3555;53.248;10.336;2023-02-15T08:36:03;2.00;99.90
7028;DHT22;3555;53.248;10.336;2023-02-15T08:38:30;2.00;99.90
7028;DHT22;3555;53.248;10.336;2023-02-15T08:40:57;2.10;99.90
7028;DHT22;3555;53.248;10.336;2023-02-15T08:43:24;1.90;99.90
7028;DHT22;3555;53.248;10.336;2023-02-15T08:45:50;1.60;99.90
7028;DHT22;3555;53.248;10.336;2023-02-15T08:48:19;1.50;99.90
7028;DHT22;3555;53.248;10.336;2023-02-15T08:50:45;1.50;99.90
7028;DHT22;3555;53.248;10.336;2023-02-15T08:53:12;1.80;99.90
7028;DHT22;3555;53.248;10.336;2023-02-15T08:55:39;1.80;99.90
7028;DHT22;3555;53.248;10.336;2023-02-15T08:58:06;1.80;99.90
7028;DHT22;3555;53.248;10.336;2023-02-15T09:00:33;1.90;99.90
7028;DHT22;3555;53.248;10.336;2023-02-15T09:03:00;2.10;99.90
7028;DHT22;3555;53.248;10.336;2023-02-15T09:05:28;2.20;99.90
7028;DHT22;3555;53.248;10.336;2023-02-15T09:07:55;2.20;99.90
7028;DHT22;3555;53.248;10.336;2023-02-15T09:10:21;2.30;99.90
7028;DHT22;3555;53.248;10.336;2023-02-15T09:12:48;2.50;99.90
7028;DHT22;3555;53.248;10.336;2023-02-15T09:15:16;2.70;99.90
7028;DHT22;3555;53.248;10.336;2023-02-15T09:17:43;2.80;99.90
7028;DHT22;3555;53.248;10.336;2023-02-15T09:20:10;2.90;99.90
7028;DHT22;3555;53.248;10.336;2023-02-15T09:22:38;3.20;99.90
7028;DHT22;3555;53.248;10.336;2023-02-15T09:25:06;3.30;99.90
7028;DHT22;3555;53.248;10.336;2023-02-15T09:27:33;3.00;99.90
7028;DHT22;3555;53.248;10.336;2023-02-15T09:29:59;3.00;99.90
7028;DHT22;3555;53.248;10.336;2023-02-15T09:32:26;3.10;99.90
7028;DHT22;3555;53.248;10.336;2023-02-15T09:34:53;2.90;99.90
7028;DHT22;3555;53.248;10.336;2023-02-15T09:37:20;3.00;99.90
7028;DHT22;3555;53.248;10.336;2023-02-15T09:39:48;3.20;99.90
7028;DHT22;3555;53.248;10.336;2023-02-15T09:42:42;3.30;99.90
7028;DHT22;3555;53.248;10.336;2023-02-15T09:45:30;3.40;99.90
7028;DHT22;3555;53.248;10.336;2023-02-15T09:48:13;3.10;99.90
7028;DHT22;3555;53.248;10.336;2023-02-15T09:50:49;3.30;99.90
7028;DHT22;3555;53.248;10.336;2023-02-15T09:53:33;3.20;99.90
7028;DHT22;3555;53.248;10.336;2023-02-15T09:56:19;3.30;99.90
7028;DHT22;3555;53.248;10.336;2023-02-15T09:58:57;3.30;99.90
7028;DHT22;3555;53.248;10.336;2023-02-15T10:01:34;3.40;99.90
7028;DHT22;3555;53.248;10.336;2023-02-15T10:04:15;3.70;99.90
7028;DHT22;3555;53.248;10.336;2023-02-15T10:06:50;3.70;99.90
7028;DHT22;3555;53.248;10.336;2023-02-15T10:09:37;3.90;99.90
7028;DHT22;3555;53.248;10.336;2023-02-15T10:12:29;4.20;99.90
7028;DHT22;3555;53.248;10.336;2023-02-15T10:15:11;4.40;99.90
7028;DHT22;3555;53.248;10.336;2023-02-15T10:17:52;4.40;99.90
7028;DHT22;3555;53.248;10.336;2023-02-15T10:20:28;4.40;99.90
7028;DHT22;3555;53.248;10.336;2023-02-15T10:23:11;4.60;99.90
7028;DHT22;3555;53.248;10.336;2023-02-15T10:25:45;4.70;99.90
7028;DHT22;3555;53.248;10.336;2023-02-15T10:28:16;4.50;99.90
7028;DHT22;3555;53.248;10.336;2023-02-15T10:30:46;4.50;99.90
7028;DHT22;3555;53.248;10.336;2023-02-15T10:33:23;4.50;99.90
7028;DHT22;3555;53.248;10.336;2023-02-15T10:36:01;4.30;99.90
7028;DHT22;3555;53.248;10.336;2023-02-15T10:38:36;4.30;99.90
7028;DHT22;3555;53.248;10.336;2023-02-15T10:41:14;4.30;99.90
7028;DHT22;3555;53.248;10.336;2023-02-15T10:44:00;4.50;99.90
7028;DHT22;3555;53.248;10.336;2023-02-15T10:46:50;4.70;99.90
7028;DHT22;3555;53.248;10.336;2023-02-15T10:49:30;4.90;99.90
7028;DHT22;3555;53.248;10.336;2023-02-15T10:52:09;5.10;99.90
7028;DHT22;3555;53.248;10.336;2023-02-15T10:54:45;5.20;99.90
7028;DHT22;3555;53.248;10.336;2023-02-15T10:57:19;5.30;99.90
7028;DHT22;3555;53.248;10.336;2023-02-15T11:00:06;5.30;99.90
7028;DHT22;3555;53.248;10.336;2023-02-15T11:02:56;5.20;99.90
7028;DHT22;3555;53.248;10.336;2023-02-15T11:05:35;5.40;99.90
7028;DHT22;3555;53.248;10.336;2023-02-15T11:08:06;5.30;99.90
7028;DHT22;3555;53.248;10.336;2023-02-15T11:10:36;5.40;99.90
7028;DHT22;3555;53.248;10.336;2023-02-15T11:13:09;5.50;99.90
7028;DHT22;3555;53.248;10.336;2023-02-15T11:15:40;5.70;99.90
7028;DHT22;3555;53.248;10.336;2023-02-15T11:18:13;5.90;99.90
7028;DHT22;3555;53.248;10.336;2023-02-15T11:20:45;5.90;99.90
7028;DHT22;3555;53.248;10.336;2023-02-15T11:23:16;6.00;99.90
7028;DHT22;3555;53.248;10.336;2023-02-15T11:25:46;6.20;99.90
7028;DHT22;3555;53.248;10.336;2023-02-15T11:28:19;6.40;99.90
7028;DHT22;3555;53.248;10.336;2023-02-15T11:30:52;6.50;99.90
7028;DHT22;3555;53.248;10.336;2023-02-15T11:33:23;6.70;99.90
7028;DHT22;3555;53.248;10.336;2023-02-15T11:35:55;6.80;99.90
7028;DHT22;3555;53.248;10.336;2023-02-15T11:38:26;6.90;99.90
7028;DHT22;3555;53.248;10.336;2023-02-15T11:40:57;6.90;99.90
7028;DHT22;3555;53.248;10.336;2023-02-15T11:43:31;7.00;99.90
7028;DHT22;3555;53.248;10.336;2023-02-15T11:46:01;7.10;99.90
7028;DHT22;3555;53.248;10.336;2023-02-15T11:48:29;7.30;99.90
7028;DHT22;3555;53.248;10.336;2023-02-15T11:50:57;7.40;99.90
7028;DHT22;3555;53.248;10.336;2023-02-15T11:53:28;7.40;99.90
7028;DHT22;3555;53.248;10.336;2023-02-15T11:55:56;7.40;99.90
7028;DHT22;3555;53.248;10.336;2023-02-15T11:58:29;7.70;99.90
7028;DHT22;3555;53.248;10.336;2023-02-15T12:01:04;7.70;99.90
7028;DHT22;3555;53.248;10.336;2023-02-15T12:03:42;7.80;99.90
7028;DHT22;3555;53.248;10.336;2023-02-15T12:06:16;8.00;99.90
7028;DHT22;3555;53.248;10.336;2023-02-15T12:08:51;8.20;99.90
7028;DHT22;3555;53.248;10.336;2023-02-15T12:11:25;8.20;99.90
7028;DHT22;3555;53.248;10.336;2023-02-15T12:13:58;8.30;99.90
7028;DHT22;3555;53.248;10.336;2023-02-15T12:16:27;8.40;99.90
7028;DHT22;3555;53.248;10.336;2023-02-15T12:18:56;8.40;99.90
7028;DHT22;3555;53.248;10.336;2023-02-15T12:21:27;8.60;99.90
7028;DHT22;3555;53.248;10.336;2023-02-15T12:23:57;8.80;99.90
7028;DHT22;3555;53.248;10.336;2023-02-15T12:26:25;8.50;99.90
7028;DHT22;3555;53.248;10.336;2023-02-15T12:28:54;8.30;99.90
7028;DHT22;3555;53.248;10.336;2023-02-15T12:31:26;8.30;99.90
7028;DHT22;3555;53.248;10.336;2023-02-15T12:33:55;8.50;99.90
7028;DHT22;3555;53.248;10.336;2023-02-15T12:36:25;8.60;99.90
7028;DHT22;3555;53.248;10.336;2023-02-15T12:39:18;8.60;99.90
7028;DHT22;3555;53.248;10.336;2023-02-15T12:41:56;8.80;99.90
7028;DHT22;3555;53.248;10.336;2023-02-15T12:44:25;8.80;99.90
7028;DHT22;3555;53.248;10.336;2023-02-15T12:47:00;8.90;99.90
7028;DHT22;3555;53.248;10.336;2023-02-15T12:49:28;9.00;99.90
7028;DHT22;3555;53.248;10.336;2023-02-15T12:51:56;9.20;99.90
7028;DHT22;3555;53.248;10.336;2023-02-15T12:54:36;9.40;99.90
7028;DHT22;3555;53.248;10.336;2023-02-15T12:57:21;9.50;99.90
7028;DHT22;3555;53.248;10.336;2023-02-15T12:59:49;9.60;3.10
7028;DHT22;3555;53.248;10.336;2023-02-15T13:02:22;9.70;77.40
7028;DHT22;3555;53.248;10.336;2023-02-15T13:04:50;10.00;87.30
7028;DHT22;3555;53.248;10.336;2023-02-15T13:07:17;10.00;1.00
7028;DHT22;3555;53.248;10.336;2023-02-15T13:09:44;9.90;1.00
7028;DHT22;3555;53.248;10.336;2023-02-15T13:12:17;9.90;1.00
7028;DHT22;3555;53.248;10.336;2023-02-15T13:14:46;10.00;1.00
7028;DHT22;3555;53.248;10.336;2023-02-15T13:17:16;10.00;1.00
7028;DHT22;3555;53.248;10.336;2023-02-15T13:19:47;9.90;1.00
7028;DHT22;3555;53.248;10.336;2023-02-15T13:22:17;10.00;1.00
7028;DHT22;3555;53.248;10.336;2023-02-15T13:24:48;10.00;1.00
7028;DHT22;3555;53.248;10.336;2023-02-15T13:27:19;9.90;1.00
7028;DHT22;3555;53.248;10.336;2023-02-15T13:29:50;9.80;1.00
7028;DHT22;3555;53.248;10.336;2023-02-15T13:32:25;9.60;1.00
7028;DHT22;3555;53.248;10.336;2023-02-15T13:34:57;9.80;82.20
7028;DHT22;3555;53.248;10.336;2023-02-15T13:37:36;9.40;13.10
7028;DHT22;3555;53.248;10.336;2023-02-15T13:40:10;9.50;49.70
7028;DHT22;3555;53.248;10.336;2023-02-15T13:42:41;9.50;66.90
7028;DHT22;3555;53.248;10.336;2023-02-15T13:45:23;9.70;96.90
7028;DHT22;3555;53.248;10.336;2023-02-15T13:48:00;9.90;99.90
7028;DHT22;3555;53.248;10.336;2023-02-15T13:53:38;9.80;1.00
7028;DHT22;3555;53.248;10.336;2023-02-15T13:56:13;9.80;88.20
7028;DHT22;3555;53.248;10.336;2023-02-15T13:59:07;9.90;91.00
7028;DHT22;3555;53.248;10.336;2023-02-15T14:01:44;9.90;99.90
7028;DHT22;3555;53.248;10.336;2023-02-15T14:07:33;9.90;99.90
7028;DHT22;3555;53.248;10.336;2023-02-15T14:10:18;9.90;1.00
7028;DHT22;3555;53.248;10.336;2023-02-15T14:13:02;9.90;90.40
7028;DHT22;3555;53.248;10.336;2023-02-15T14:15:35;9.80;60.40
7028;DHT22;3555;53.248;10.336;2023-02-15T14:18:18;9.90;99.90
7028;DHT22;3555;53.248;10.336;2023-02-15T14:20:56;9.90;99.90
7028;DHT22;3555;53.248;10.336;2023-02-15T14:23:38;9.90;99.90
7028;DHT22;3555;53.248;10.336;2023-02-15T14:26:13;10.00;99.90
7028;DHT22;3555;53.248;10.336;2023-02-15T14:28:46;10.10;99.90
7028;DHT22;3555;53.248;10.336;2023-02-15T14:31:28;10.30;96.30
7028;DHT22;3555;53.248;10.336;2023-02-15T14:33:57;10.20;2.30
7028;DHT22;3555;53.248;10.336;2023-02-15T14:36:25;10.20;79.90
7028;DHT22;3555;53.248;10.336;2023-02-15T14:39:06;10.20;35.20
7028;DHT22;3555;53.248;10.336;2023-02-15T14:42:02;10.20;1.00
7028;DHT22;3555;53.248;10.336;2023-02-15T14:44:33;10.20;1.00
7028;DHT22;3555;53.248;10.336;2023-02-15T14:47:05;10.40;1.00
7028;DHT22;3555;53.248;10.336;2023-02-15T14:49:36;10.40;1.00
7028;DHT22;3555;53.248;10.336;2023-02-15T14:52:05;10.40;1.00
7028;DHT22;3555;53.248;10.336;2023-02-15T14:54:54;10.60;1.00
7028;DHT22;3555;53.248;10.336;2023-02-15T14:57:34;10.40;72.00
7028;DHT22;3555;53.248;10.336;2023-02-15T15:02:46;10.50;1.00
7028;DHT22;3555;53.248;10.336;2023-02-15T15:05:18;10.40;1.00
7028;DHT22;3555;53.248;10.336;2023-02-15T15:07:48;10.30;1.00
7028;DHT22;3555;53.248;10.336;2023-02-15T15:10:45;10.20;99.90
7028;DHT22;3555;53.248;10.336;2023-02-15T15:13:35;10.10;99.90
7028;DHT22;3555;53.248;10.336;2023-02-15T15:19:05;9.70;99.90
7028;DHT22;3555;53.248;10.336;2023-02-15T15:22:02;9.50;99.90
7028;DHT22;3555;53.248;10.336;2023-02-15T15:24:53;9.50;99.90
7028;DHT22;3555;53.248;10.336;2023-02-15T15:27:44;9.60;99.90
7028;DHT22;3555;53.248;10.336;2023-02-15T15:37:04;9.40;99.90
7028;DHT22;3555;53.248;10.336;2023-02-15T15:46:12;9.00;99.90
7028;DHT22;3555;53.248;10.336;2023-02-15T15:48:44;9.10;99.90
7028;DHT22;3555;53.248;10.336;2023-02-15T15:51:17;9.30;99.90
7028;DHT22;3555;53.248;10.336;2023-02-15T15:53:46;9.30;99.90
7028;DHT22;3555;53.248;10.336;2023-02-15T15:56:19;9.40;99.90
7028;DHT22;3555;53.248;10.336;2023-02-15T15:58:51;9.40;99.90
7028;DHT22;3555;53.248;10.336;2023-02-15T16:01:25;9.50;99.90
7028;DHT22;3555;53.248;10.336;2023-02-15T16:03:54;9.40;99.90
7028;DHT22;3555;53.248;10.336;2023-02-15T16:06:40;9.50;99.90
7028;DHT22;3555;53.248;10.336;2023-02-15T16:09:12;9.50;99.90
7028;DHT22;3555;53.248;10.336;2023-02-15T16:11:39;9.50;99.90
7028;DHT22;3555;53.248;10.336;2023-02-15T16:14:13;9.30;99.90
7028;DHT22;3555;53.248;10.336;2023-02-15T16:16:41;9.30;99.90
7028;DHT22;3555;53.248;10.336;2023-02-15T16:19:19;9.40;99.90
7028;DHT22;3555;53.248;10.336;2023-02-15T16:21:47;9.30;99.90
7028;DHT22;3555;53.248;10.336;2023-02-15T16:24:37;9.30;99.90
7028;DHT22;3555;53.248;10.336;2023-02-15T16:27:18;9.30;99.90
7028;DHT22;3555;53.248;10.336;2023-02-15T16:29:48;9.30;99.90
7028;DHT22;3555;53.248;10.336;2023-02-15T16:32:18;9.40;99.90
7028;DHT22;3555;53.248;10.336;2023-02-15T16:34:53;9.30;99.90
7028;DHT22;3555;53.248;10.336;2023-02-15T16:37:22;9.30;99.90
7028;DHT22;3555;53.248;10.336;2023-02-15T16:39:52;9.10;99.90
7028;DHT22;3555;53.248;10.336;2023-02-15T16:42:19;9.00;99.90
7028;DHT22;3555;53.248;10.336;2023-02-15T16:44:50;8.90;99.90
7028;DHT22;3555;53.248;10.336;2023-02-15T16:47:20;8.90;99.90
7028;DHT22;3555;53.248;10.336;2023-02-15T16:49:50;8.90;99.90
7028;DHT22;3555;53.248;10.336;2023-02-15T16:52:21;8.70;99.90
7028;DHT22;3555;53.248;10.336;2023-02-15T16:54:53;8.60;99.90
7028;DHT22;3555;53.248;10.336;2023-02-15T16:57:23;8.50;99.90
7028;DHT22;3555;53.248;10.336;2023-02-15T16:59:53;8.50;99.90
7028;DHT22;3555;53.248;10.336;2023-02-15T17:02:25;8.40;99.90